createdAt,value
2023-03-04T00:01:09.600Z,80.80
2023-03-04T00:03:37.428Z,81.20
2023-03-04T00:06:05.322Z,81.00
2023-03-04T00:08:33.339Z,80.40
2023-03-04T00:11:01.231Z,81.10
2023-03-04T00:13:28.583Z,80.90
2023-03-04T00:15:56.585Z,80.70
2023-03-04T00:18:23.997Z,81.10
2023-03-04T00:20:51.431Z,80.60
2023-03-04T00:23:19.286Z,80.70
2023-03-04T00:25:46.646Z,81.30
2023-03-04T00:28:14.783Z,81.60
2023-03-04T00:30:44.938Z,81.60
2023-03-04T00:33:12.375Z,81.50
2023-03-04T00:35:39.873Z,81.80
2023-03-04T00:38:07.232Z,81.90
2023-03-04T00:40:35.019Z,82.20
2023-03-04T00:43:03.722Z,82.00
2023-03-04T00:45:36.455Z,81.50
2023-03-04T00:48:04.019Z,81.50
2023-03-04T00:50:31.462Z,81.40
2023-03-04T00:52:58.925Z,81.40
2023-03-04T00:55:26.423Z,81.60
2023-03-04T00:57:53.911Z,82.00
2023-03-04T01:00:21.673Z,81.90
2023-03-04T01:02:49.352Z,82.10
2023-03-04T01:05:17.087Z,81.80
2023-03-04T01:07:44.636Z,81.70
2023-03-04T01:10:14.035Z,81.90
2023-03-04T01:12:42.261Z,81.70
2023-03-04T01:15:14.332Z,81.60
2023-03-04T01:17:41.819Z,81.80
2023-03-04T01:20:10.620Z,81.40
2023-03-04T01:22:38.037Z,81.50
2023-03-04T01:25:06.414Z,81.30
2023-03-04T01:27:34.067Z,81.50
2023-03-04T01:30:01.364Z,81.80
2023-03-04T01:32:30.411Z,82.10
2023-03-04T01:34:58.029Z,82.40
2023-03-04T01:37:25.531Z,81.80
2023-03-04T01:39:52.929Z,81.70
2023-03-04T01:42:22.739Z,81.90
2023-03-04T01:44:51.540Z,81.60
2023-03-04T01:47:20.357Z,81.70
2023-03-04T01:49:54.767Z,80.90
2023-03-04T01:52:22.878Z,81.00
2023-03-04T01:54:51.091Z,80.80
2023-03-04T01:57:19.920Z,81.50
2023-03-04T01:59:48.586Z,81.30
2023-03-04T02:02:15.974Z,81.60
2023-03-04T02:04:43.573Z,81.40
2023-03-04T02:07:10.919Z,81.60
2023-03-04T02:09:38.464Z,81.80
2023-03-04T02:12:06.201Z,81.20
2023-03-04T02:14:33.943Z,81.00
2023-03-04T02:17:01.320Z,81.50
2023-03-04T02:19:56.967Z,81.50
2023-03-04T02:22:24.533Z,81.60
2023-03-04T02:25:04.235Z,81.80
2023-03-04T02:27:31.605Z,82.20
2023-03-04T02:29:58.883Z,82.40
2023-03-04T02:32:28.700Z,82.60
2023-03-04T02:34:57.403Z,82.50
2023-03-04T02:37:25.019Z,82.70
2023-03-04T02:39:55.590Z,83.00
2023-03-04T02:42:24.743Z,83.30
2023-03-04T02:45:01.037Z,83.10
2023-03-04T02:47:28.751Z,83.00
2023-03-04T02:49:56.844Z,82.80
2023-03-04T02:52:27.277Z,82.60
2023-03-04T02:54:55.496Z,82.60
2023-03-04T02:57:23.005Z,82.60
2023-03-04T02:59:54.418Z,82.60
2023-03-04T03:02:25.072Z,82.60
2023-03-04T03:04:52.878Z,83.10
2023-03-04T03:07:21.795Z,83.60
2023-03-04T03:09:50.060Z,84.30
2023-03-04T03:12:18.623Z,84.60
2023-03-04T03:14:46.046Z,84.40
2023-03-04T03:17:15.848Z,84.30
2023-03-04T03:19:43.314Z,84.20
2023-03-04T03:22:11.246Z,83.70
2023-03-04T03:24:38.594Z,83.80
2023-03-04T03:27:05.981Z,83.90
2023-03-04T03:29:35.666Z,83.90
2023-03-04T03:32:03.202Z,84.00
2023-03-04T03:34:30.786Z,84.10
2023-03-04T03:36:58.565Z,84.30
2023-03-04T03:39:25.802Z,84.20
2023-03-04T03:41:53.186Z,83.80
2023-03-04T03:44:20.661Z,83.40
2023-03-04T03:46:47.968Z,83.40
2023-03-04T03:49:17.386Z,83.60
2023-03-04T03:51:45.048Z,83.60
2023-03-04T03:54:14.212Z,83.70
2023-03-04T03:56:41.737Z,84.00
2023-03-04T03:59:09.153Z,83.70
2023-03-04T04:01:36.582Z,83.60
2023-03-04T04:04:04.077Z,83.50
2023-03-04T04:06:31.518Z,83.40
2023-03-04T04:08:58.900Z,83.40
2023-03-04T04:11:26.236Z,83.90
2023-03-04T04:13:53.709Z,84.20
2023-03-04T04:16:21.106Z,84.50
2023-03-04T04:18:48.480Z,84.70
2023-03-04T04:21:16.312Z,84.90
2023-03-04T04:23:43.732Z,84.70
2023-03-04T04:26:11.036Z,84.90
2023-03-04T04:28:39.354Z,84.60
2023-03-04T04:31:10.042Z,84.50
2023-03-04T04:33:37.854Z,84.50
2023-03-04T04:36:06.464Z,84.40
2023-03-04T04:38:33.719Z,84.30
2023-03-04T04:41:01.069Z,85.30
2023-03-04T04:43:28.759Z,85.50
2023-03-04T04:45:56.009Z,85.50
2023-03-04T04:48:23.688Z,85.20
2023-03-04T04:50:56.531Z,85.10
2023-03-04T04:53:23.922Z,85.10
2023-03-04T04:55:51.192Z,84.60
2023-03-04T04:58:18.565Z,84.50
2023-03-04T05:00:47.650Z,85.70
2023-03-04T05:03:17.522Z,86.30
2023-03-04T05:05:46.920Z,86.00
2023-03-04T05:08:14.326Z,85.40
2023-03-04T05:10:41.583Z,85.30
2023-03-04T05:13:09.132Z,85.10
2023-03-04T05:15:41.015Z,84.60
2023-03-04T05:18:08.879Z,84.40
2023-03-04T05:20:36.539Z,84.50
2023-03-04T05:23:04.344Z,84.90
2023-03-04T05:25:31.835Z,84.80
2023-03-04T05:28:02.147Z,84.90
2023-03-04T05:30:35.317Z,84.90
2023-03-04T05:33:02.922Z,84.40
2023-03-04T05:35:30.274Z,84.20
2023-03-04T05:37:57.746Z,84.30
2023-03-04T05:40:26.187Z,84.70
2023-03-04T05:42:53.763Z,85.00
2023-03-04T05:45:25.221Z,85.20
2023-03-04T05:47:55.135Z,85.10
2023-03-04T05:50:24.298Z,85.00
2023-03-04T05:52:53.259Z,84.30
2023-03-04T05:55:20.943Z,85.10
2023-03-04T05:57:48.447Z,84.90
2023-03-04T06:00:16.860Z,85.10
2023-03-04T06:02:45.378Z,84.90
2023-03-04T06:05:14.386Z,84.80
2023-03-04T06:07:43.496Z,84.60
2023-03-04T06:10:13.627Z,84.00
2023-03-04T06:12:41.106Z,84.60
2023-03-04T06:15:10.564Z,85.10
2023-03-04T06:17:41.867Z,85.10
2023-03-04T06:20:11.645Z,85.10
2023-03-04T06:22:39.797Z,84.70
2023-03-04T06:25:08.909Z,84.70
2023-03-04T06:27:36.343Z,84.60
2023-03-04T06:30:07.934Z,84.40
2023-03-04T06:32:35.117Z,84.30
2023-03-04T06:35:02.732Z,84.20
2023-03-04T06:37:30.537Z,84.10
2023-03-04T06:39:57.960Z,84.40
2023-03-04T06:42:25.944Z,83.90
2023-03-04T06:44:53.582Z,83.90
2023-03-04T06:47:21.168Z,84.30
2023-03-04T06:49:49.296Z,84.30
2023-03-04T06:52:16.814Z,83.50
2023-03-04T06:54:44.560Z,83.50
2023-03-04T06:57:12.084Z,83.50
2023-03-04T06:59:39.894Z,83.10
2023-03-04T07:02:10.648Z,82.70
2023-03-04T07:04:38.034Z,82.40
2023-03-04T07:07:05.956Z,82.00
2023-03-04T07:09:33.578Z,82.00
2023-03-04T07:12:01.043Z,81.90
2023-03-04T07:14:28.527Z,82.00
2023-03-04T07:16:56.645Z,82.10
2023-03-04T07:19:24.364Z,81.50
2023-03-04T07:21:52.465Z,81.50
2023-03-04T07:24:20.038Z,81.90
2023-03-04T07:26:47.795Z,81.50
2023-03-04T07:29:15.115Z,81.90
2023-03-04T07:31:43.343Z,81.60
2023-03-04T07:34:14.019Z,81.30
2023-03-04T07:36:42.446Z,81.00
2023-03-04T07:39:13.656Z,80.80
2023-03-04T07:41:42.160Z,80.50
2023-03-04T07:44:13.800Z,80.50
2023-03-04T07:46:41.465Z,80.40
2023-03-04T07:49:08.828Z,80.50
2023-03-04T07:51:39.833Z,80.30
2023-03-04T07:54:10.612Z,80.10
2023-03-04T07:56:38.183Z,79.70
2023-03-04T07:59:08.274Z,79.80
2023-03-04T08:01:38.673Z,79.60
2023-03-04T08:04:08.578Z,79.50
2023-03-04T08:06:36.138Z,79.40
2023-03-04T08:09:06.994Z,79.50
2023-03-04T08:11:36.591Z,79.70
2023-03-04T08:14:04.789Z,79.50
2023-03-04T08:16:32.529Z,79.40
2023-03-04T08:19:05.093Z,78.90
2023-03-04T08:21:33.643Z,79.00
2023-03-04T08:24:08.304Z,77.90
2023-03-04T08:26:42.785Z,78.00
2023-03-04T08:29:16.844Z,77.40
2023-03-04T08:31:48.831Z,77.40
2023-03-04T08:34:19.333Z,76.60
2023-03-04T08:36:47.309Z,77.00
2023-03-04T08:39:16.576Z,75.80
2023-03-04T08:41:44.321Z,75.80
2023-03-04T08:44:12.202Z,76.10
2023-03-04T08:46:41.880Z,76.20
2023-03-04T08:49:15.006Z,76.30
2023-03-04T08:51:46.105Z,76.90
2023-03-04T08:54:17.543Z,75.10
2023-03-04T08:56:46.265Z,75.20
2023-03-04T08:59:13.961Z,74.90
2023-03-04T09:01:42.582Z,74.50
2023-03-04T09:04:10.055Z,74.90
2023-03-04T09:06:37.531Z,73.90
2023-03-04T09:09:05.823Z,74.20
2023-03-04T09:11:34.353Z,74.10
2023-03-04T09:14:01.728Z,72.70
2023-03-04T09:16:30.002Z,72.50
2023-03-04T09:18:57.357Z,72.20
2023-03-04T09:21:24.887Z,72.50
2023-03-04T09:23:52.732Z,72.70
2023-03-04T09:26:24.393Z,71.50
2023-03-04T09:28:53.520Z,71.60
2023-03-04T09:31:27.625Z,69.60
2023-03-04T09:33:58.335Z,69.40
2023-03-04T09:40:43.399Z,69.80
2023-03-04T09:43:25.207Z,69.80
2023-03-04T09:46:00.501Z,70.20
2023-03-04T09:48:33.272Z,70.10
2023-03-04T09:51:23.864Z,69.20
2023-03-04T09:54:07.562Z,69.00
2023-03-04T09:56:41.389Z,66.30
2023-03-04T09:59:32.568Z,67.00
2023-03-04T10:02:08.106Z,66.90
2023-03-04T10:04:42.538Z,66.60
2023-03-04T10:07:19.247Z,64.90
2023-03-04T10:10:00.538Z,64.80
2023-03-04T10:12:31.821Z,66.30
2023-03-04T10:15:26.086Z,65.80
2023-03-04T10:18:04.029Z,62.20
2023-03-04T10:20:45.011Z,58.90
2023-03-04T10:23:21.546Z,61.90
2023-03-04T10:26:12.449Z,64.10
2023-03-04T10:28:39.975Z,64.10
2023-03-04T10:31:37.704Z,64.60
2023-03-04T10:34:07.337Z,63.80
2023-03-04T10:36:56.824Z,61.50
2023-03-04T10:39:39.570Z,63.00
2023-03-04T10:42:25.264Z,61.00
2023-03-04T10:44:56.156Z,61.50
2023-03-04T10:47:26.877Z,61.70
2023-03-04T10:49:57.660Z,62.90
2023-03-04T10:52:32.545Z,61.30
2023-03-04T10:55:07.447Z,59.20
2023-03-04T10:57:41.095Z,57.80
2023-03-04T11:00:24.884Z,60.50
2023-03-04T11:02:53.248Z,60.10
2023-03-04T11:05:22.827Z,62.60
2023-03-04T11:07:57.256Z,62.30
2023-03-04T11:10:33.166Z,61.60
2023-03-04T11:13:01.938Z,58.80
2023-03-04T11:15:32.998Z,57.00
2023-03-04T11:18:11.193Z,60.40
2023-03-04T11:20:42.510Z,58.40
2023-03-04T11:23:15.138Z,60.30
2023-03-04T11:25:58.751Z,60.60
2023-03-04T11:28:35.196Z,59.00
2023-03-04T11:31:09.385Z,59.30
2023-03-04T11:33:56.969Z,59.30
2023-03-04T11:36:48.822Z,59.60
2023-03-04T11:39:51.744Z,59.30
2023-03-04T11:42:32.013Z,59.40
2023-03-04T11:44:59.668Z,56.80
2023-03-04T11:47:42.057Z,58.60
2023-03-04T11:50:18.126Z,57.00
2023-03-04T11:53:14.779Z,56.60
2023-03-04T11:55:42.220Z,56.90
2023-03-04T11:58:48.132Z,57.80
2023-03-04T12:01:25.449Z,58.90
2023-03-04T12:04:16.399Z,56.80
2023-03-04T12:07:13.579Z,57.00
2023-03-04T12:09:47.101Z,56.90
2023-03-04T12:12:29.709Z,55.80
2023-03-04T12:15:03.930Z,55.80
2023-03-04T12:18:00.954Z,55.60
2023-03-04T12:20:36.415Z,56.10
2023-03-04T12:23:25.324Z,54.00
2023-03-04T12:26:14.094Z,54.40
2023-03-04T12:29:16.056Z,53.30
2023-03-04T12:31:46.811Z,52.90
2023-03-04T12:34:14.336Z,53.00
2023-03-04T12:37:08.221Z,54.60
2023-03-04T12:39:43.317Z,54.30
2023-03-04T12:42:59.785Z,54.40
2023-03-04T12:45:42.097Z,54.50
2023-03-04T12:48:22.583Z,54.60
2023-03-04T12:51:08.833Z,55.10
2023-03-04T12:53:48.365Z,55.70
2023-03-04T12:56:44.118Z,55.40
2023-03-04T12:59:22.059Z,54.20
2023-03-04T13:02:02.832Z,54.00
2023-03-04T13:04:59.721Z,56.00
2023-03-04T13:07:48.631Z,54.50
2023-03-04T13:10:21.172Z,55.50
2023-03-04T13:12:58.141Z,55.80
2023-03-04T13:15:37.113Z,55.90
2023-03-04T13:18:27.686Z,55.30
2023-03-04T13:21:22.427Z,54.10
2023-03-04T13:23:51.258Z,54.80
2023-03-04T13:26:22.177Z,54.20
2023-03-04T13:28:56.217Z,54.40
2023-03-04T13:31:27.345Z,54.60
2023-03-04T13:33:57.404Z,56.70
2023-03-04T13:36:51.844Z,56.70
2023-03-04T13:39:19.280Z,56.50
2023-03-04T13:41:51.883Z,55.00
2023-03-04T13:44:45.181Z,56.50
2023-03-04T13:47:19.526Z,56.60
2023-03-04T13:49:47.463Z,57.60
2023-03-04T13:52:45.584Z,57.80
2023-03-04T13:55:32.167Z,57.60
2023-03-04T13:58:00.112Z,57.60
2023-03-04T14:00:32.833Z,57.50
2023-03-04T14:03:14.874Z,58.10
2023-03-04T14:05:56.873Z,59.00
2023-03-04T14:08:53.483Z,59.90
2023-03-04T14:12:14.053Z,63.00
2023-03-04T14:18:30.225Z,65.50
2023-03-04T14:21:00.049Z,65.80
2023-03-04T14:23:29.325Z,66.10
2023-03-04T14:26:14.757Z,66.70
2023-03-04T14:28:52.049Z,66.60
2023-03-04T14:31:24.062Z,67.60
2023-03-04T14:34:01.112Z,68.00
2023-03-04T14:36:40.210Z,67.70
2023-03-04T14:39:08.839Z,68.00
2023-03-04T14:41:43.381Z,68.80
2023-03-04T14:44:39.043Z,68.80
2023-03-04T14:48:01.866Z,68.50
2023-03-04T14:50:50.948Z,69.50
2023-03-04T14:53:21.638Z,69.30
2023-03-04T14:56:06.740Z,67.70
2023-03-04T14:58:36.830Z,67.60
2023-03-04T15:01:29.864Z,66.80
2023-03-04T15:04:09.788Z,66.10
2023-03-04T15:06:52.835Z,66.50
2023-03-04T15:09:26.464Z,66.10
2023-03-04T15:12:05.720Z,66.20
2023-03-04T15:14:57.837Z,66.60
2023-03-04T15:17:38.655Z,67.70
2023-03-04T15:20:11.688Z,67.70
2023-03-04T15:22:44.621Z,68.50
2023-03-04T15:25:21.320Z,67.70
2023-03-04T15:27:50.522Z,68.40
2023-03-04T15:30:28.173Z,68.50
2023-03-04T15:32:57.590Z,69.30
2023-03-04T15:35:29.080Z,70.10
2023-03-04T15:37:57.861Z,69.70
2023-03-04T15:40:30.169Z,67.50
2023-03-04T15:42:59.696Z,65.90
2023-03-04T15:45:33.739Z,65.50
2023-03-04T15:48:04.568Z,64.20
2023-03-04T15:50:32.371Z,63.10
2023-03-04T15:53:03.232Z,62.20
2023-03-04T15:55:33.294Z,59.80
2023-03-04T15:58:00.976Z,59.60
2023-03-04T16:00:33.812Z,61.90
2023-03-04T16:03:01.661Z,64.00
2023-03-04T16:05:30.045Z,64.90
2023-03-04T16:07:57.733Z,66.60
2023-03-04T16:10:28.292Z,68.60
2023-03-04T16:12:58.723Z,70.20
2023-03-04T16:15:31.344Z,70.60
2023-03-04T16:17:59.896Z,70.50
2023-03-04T16:20:30.834Z,70.80
2023-03-04T16:23:01.508Z,71.40
2023-03-04T16:25:31.086Z,72.10
2023-03-04T16:28:04.983Z,72.70
2023-03-04T16:30:35.595Z,72.90
2023-03-04T16:33:04.026Z,73.50
2023-03-04T16:35:34.645Z,73.60
2023-03-04T16:38:02.086Z,74.10
2023-03-04T16:40:31.424Z,74.50
2023-03-04T16:42:58.909Z,74.60
2023-03-04T16:45:30.949Z,74.80
2023-03-04T16:47:59.126Z,75.00
2023-03-04T16:50:29.195Z,75.00
2023-03-04T16:52:57.081Z,74.80
2023-03-04T16:55:30.678Z,75.20
2023-03-04T16:57:58.424Z,75.60
2023-03-04T17:00:30.912Z,75.40
2023-03-04T17:03:00.892Z,75.10
2023-03-04T17:05:31.819Z,75.50
2023-03-04T17:08:00.659Z,74.90
2023-03-04T17:10:28.024Z,74.70
2023-03-04T17:12:55.766Z,74.60
2023-03-04T17:15:27.990Z,74.80
2023-03-04T17:17:55.374Z,74.90
2023-03-04T17:20:23.513Z,75.00
2023-03-04T17:22:51.479Z,75.20
2023-03-04T17:25:19.322Z,75.50
2023-03-04T17:27:46.533Z,76.20
2023-03-04T17:30:15.026Z,76.10
2023-03-04T17:32:42.474Z,75.80
2023-03-04T17:35:11.538Z,75.90
2023-03-04T17:37:39.334Z,76.10
2023-03-04T17:40:14.324Z,75.90
2023-03-04T17:42:43.186Z,76.10
2023-03-04T17:45:12.064Z,75.20
2023-03-04T17:47:39.593Z,76.00
2023-03-04T17:50:08.643Z,75.70
2023-03-04T17:52:37.606Z,76.60
2023-03-04T17:55:06.369Z,76.60
2023-03-04T17:57:38.464Z,76.80
2023-03-04T18:00:07.156Z,76.70
2023-03-04T18:02:35.947Z,76.90
2023-03-04T18:05:07.052Z,77.00
2023-03-04T18:07:34.727Z,77.20
2023-03-04T18:10:02.107Z,77.20
2023-03-04T18:12:29.971Z,77.10
2023-03-04T18:14:57.562Z,76.90
2023-03-04T18:17:25.127Z,76.80
2023-03-04T18:19:52.566Z,76.40
2023-03-04T18:22:45.207Z,76.10
2023-03-04T18:25:13.365Z,76.00
2023-03-04T18:27:42.055Z,76.20
2023-03-04T18:30:12.264Z,76.20
2023-03-04T18:32:51.342Z,76.20
2023-03-04T18:35:20.335Z,76.20
2023-03-04T18:37:49.374Z,76.30
2023-03-04T18:40:17.188Z,76.00
2023-03-04T18:42:44.876Z,76.30
2023-03-04T18:45:14.655Z,76.10
2023-03-04T18:47:45.543Z,76.10
2023-03-04T18:50:14.367Z,76.00
2023-03-04T18:52:41.957Z,76.00
2023-03-04T18:55:11.385Z,75.80
2023-03-04T18:57:42.214Z,76.00
2023-03-04T19:00:19.415Z,76.00
2023-03-04T19:03:01.006Z,76.30
2023-03-04T19:05:55.184Z,76.00
2023-03-04T19:08:29.473Z,76.50
2023-03-04T19:10:57.121Z,76.90
2023-03-04T19:13:24.334Z,76.80
2023-03-04T19:15:53.823Z,77.40
2023-03-04T19:18:21.558Z,77.20
2023-03-04T19:20:48.818Z,77.50
2023-03-04T19:23:17.423Z,77.80
2023-03-04T19:25:45.040Z,77.90
2023-03-04T19:28:12.662Z,78.30
2023-03-04T19:30:42.827Z,78.60
2023-03-04T19:33:10.613Z,78.40
2023-03-04T19:35:45.389Z,78.50
2023-03-04T19:38:13.967Z,78.90
2023-03-04T19:40:43.581Z,79.60
2023-03-04T19:43:12.564Z,79.10
2023-03-04T19:45:43.101Z,79.50
2023-03-04T19:48:10.823Z,78.90
2023-03-04T19:50:38.337Z,78.80
2023-03-04T19:53:05.982Z,78.90
2023-03-04T19:55:38.467Z,79.20
2023-03-04T19:58:05.992Z,79.20
2023-03-04T20:00:35.784Z,78.80
2023-03-04T20:03:05.254Z,78.80
2023-03-04T20:05:32.774Z,79.20
2023-03-04T20:08:01.253Z,79.20
2023-03-04T20:10:33.769Z,78.90
2023-03-04T20:13:01.140Z,78.50
2023-03-04T20:15:31.046Z,79.60
2023-03-04T20:17:58.886Z,79.80
2023-03-04T20:20:28.956Z,80.50
2023-03-04T20:22:57.219Z,80.20
2023-03-04T20:25:25.783Z,79.50
2023-03-04T20:27:53.107Z,79.60
2023-03-04T20:30:26.380Z,79.60
2023-03-04T20:32:54.373Z,80.30
2023-03-04T20:35:21.901Z,80.40
2023-03-04T20:37:49.571Z,79.00
2023-03-04T20:40:17.004Z,78.70
2023-03-04T20:42:44.663Z,79.50
2023-03-04T20:45:14.231Z,79.50
2023-03-04T20:47:41.698Z,79.30
2023-03-04T20:50:10.054Z,78.80
2023-03-04T20:52:37.892Z,78.90
2023-03-04T20:55:05.936Z,79.40
2023-03-04T20:57:33.674Z,79.40
2023-03-04T21:00:01.054Z,79.20
2023-03-04T21:02:30.832Z,79.40
2023-03-04T21:04:58.489Z,79.40
2023-03-04T21:07:26.495Z,79.20
2023-03-04T21:09:55.007Z,77.90
2023-03-04T21:12:23.047Z,78.10
2023-03-04T21:14:50.959Z,78.20
2023-03-04T21:17:19.051Z,79.20
2023-03-04T21:19:46.605Z,79.50
2023-03-04T21:22:16.743Z,78.30
2023-03-04T21:24:45.554Z,79.00
2023-03-04T21:27:16.864Z,79.00
2023-03-04T21:29:45.408Z,79.10
2023-03-04T21:32:24.707Z,78.90
2023-03-04T21:34:54.913Z,78.80
2023-03-04T21:37:25.033Z,78.90
2023-03-04T21:39:54.995Z,78.20
2023-03-04T21:42:22.511Z,78.60
2023-03-04T21:44:51.414Z,79.40
2023-03-04T21:47:20.444Z,79.10
2023-03-04T21:49:48.252Z,79.40
2023-03-04T21:52:16.252Z,79.50
2023-03-04T21:54:44.139Z,79.20
2023-03-04T21:57:12.321Z,79.10
2023-03-04T21:59:41.107Z,78.90
2023-03-04T22:02:19.118Z,79.40
2023-03-04T22:04:47.331Z,79.40
2023-03-04T22:07:15.153Z,79.60
2023-03-04T22:09:42.396Z,79.20
2023-03-04T22:12:10.105Z,79.60
2023-03-04T22:14:37.478Z,80.20
2023-03-04T22:17:04.991Z,80.20
2023-03-04T22:19:33.696Z,80.40
2023-03-04T22:22:01.029Z,80.50
2023-03-04T22:24:28.938Z,80.60
2023-03-04T22:26:57.829Z,80.40
2023-03-04T22:29:25.230Z,80.30
2023-03-04T22:31:53.165Z,79.90
2023-03-04T22:34:20.825Z,78.90
2023-03-04T22:36:49.450Z,79.50
2023-03-04T22:39:19.539Z,79.60
2023-03-04T22:41:47.802Z,79.50
2023-03-04T22:44:15.729Z,79.20
2023-03-04T22:46:43.838Z,79.50
2023-03-04T22:49:14.250Z,79.80
2023-03-04T22:51:43.442Z,80.00
2023-03-04T22:54:16.482Z,79.40
2023-03-04T22:56:44.947Z,79.30
2023-03-04T22:59:13.827Z,78.90
2023-03-04T23:01:42.029Z,79.70
2023-03-04T23:04:09.322Z,80.00
2023-03-04T23:06:37.923Z,80.40
2023-03-04T23:09:07.090Z,80.60
2023-03-04T23:11:35.952Z,80.80
2023-03-04T23:14:07.405Z,80.30
2023-03-04T23:16:41.233Z,79.60
2023-03-04T23:19:11.781Z,80.20
2023-03-04T23:21:40.479Z,80.20
2023-03-04T23:24:11.876Z,80.50
2023-03-04T23:26:43.513Z,80.80
2023-03-04T23:29:15.403Z,80.60
2023-03-04T23:31:44.533Z,80.20
2023-03-04T23:34:13.411Z,79.50
2023-03-04T23:36:41.090Z,79.80
2023-03-04T23:39:09.407Z,79.70
2023-03-04T23:41:38.966Z,80.10
2023-03-04T23:44:08.663Z,80.20
2023-03-04T23:46:37.974Z,80.50
2023-03-04T23:49:08.589Z,79.80
2023-03-04T23:51:45.093Z,79.90
2023-03-04T23:54:20.362Z,80.40
2023-03-04T23:56:49.419Z,80.70
2023-03-04T23:59:16.791Z,80.70
